createdAt,value
2019-05-12T00:00:32.259Z,58.26
2019-05-12T00:03:00.647Z,58.27
2019-05-12T00:05:28.795Z,58.28
2019-05-12T00:07:58.908Z,58.26
2019-05-12T00:10:28.241Z,58.28
2019-05-12T00:12:58.166Z,58.31
2019-05-12T00:15:27.976Z,58.29
2019-05-12T00:17:58.693Z,58.34
2019-05-12T00:20:28.383Z,58.39
2019-05-12T00:22:59.764Z,58.41
2019-05-12T00:25:28.424Z,58.41
2019-05-12T00:27:58.613Z,58.44
2019-05-12T00:30:39.100Z,58.47
2019-05-12T00:33:09.353Z,58.49
2019-05-12T00:35:38.190Z,58.52
2019-05-12T00:38:08.682Z,58.58
2019-05-12T00:40:39.192Z,58.61
2019-05-12T00:43:09.659Z,58.64
2019-05-12T00:45:38.798Z,58.67
2019-05-12T00:48:09.013Z,58.69
2019-05-12T00:50:38.195Z,58.72
2019-05-12T00:53:08.995Z,58.75
2019-05-12T00:55:38.157Z,58.79
2019-05-12T00:58:08.219Z,58.82
2019-05-12T01:00:40.510Z,58.87
2019-05-12T01:03:08.726Z,58.90
2019-05-12T01:05:38.339Z,58.96
2019-05-12T01:08:08.987Z,59.04
2019-05-12T01:10:38.886Z,59.06
2019-05-12T01:13:08.536Z,59.10
2019-05-12T01:15:37.814Z,59.12
2019-05-12T01:18:08.914Z,59.14
2019-05-12T01:20:39.038Z,59.21
2019-05-12T01:23:08.502Z,59.31
2019-05-12T01:25:39.108Z,59.38
2019-05-12T01:28:08.095Z,59.45
2019-05-12T01:30:38.698Z,59.49
2019-05-12T01:33:08.531Z,59.56
2019-05-12T01:35:38.816Z,59.61
2019-05-12T01:38:07.974Z,59.68
2019-05-12T01:40:38.543Z,59.72
2019-05-12T01:43:08.783Z,59.79
2019-05-12T01:45:38.446Z,59.82
2019-05-12T01:48:08.673Z,59.83
2019-05-12T01:50:38.644Z,59.87
2019-05-12T01:53:08.753Z,59.92
2019-05-12T01:55:39.910Z,59.94
2019-05-12T01:58:08.579Z,59.95
2019-05-12T02:00:38.696Z,59.97
2019-05-12T02:03:08.990Z,59.98
2019-05-12T02:05:40.320Z,59.98
2019-05-12T02:08:12.138Z,59.97
2019-05-12T02:10:40.330Z,59.95
2019-05-12T02:13:08.367Z,59.96
2019-05-12T02:15:38.272Z,60.01
2019-05-12T02:18:08.780Z,60.00
2019-05-12T02:20:38.103Z,60.03
2019-05-12T02:23:08.890Z,60.07
2019-05-12T02:25:38.072Z,60.08
2019-05-12T02:28:08.803Z,60.09
2019-05-12T02:30:40.751Z,60.10
2019-05-12T02:33:06.795Z,60.07
2019-05-12T02:35:35.646Z,60.07
2019-05-12T02:38:05.030Z,60.05
2019-05-12T02:40:34.696Z,60.05
2019-05-12T02:43:05.309Z,60.08
2019-05-12T02:45:35.758Z,60.12
2019-05-12T02:48:05.008Z,60.14
2019-05-12T02:50:36.398Z,60.17
2019-05-12T02:53:05.790Z,60.25
2019-05-12T02:55:35.630Z,60.28
2019-05-12T02:58:04.969Z,60.32
2019-05-12T03:00:35.941Z,60.38
2019-05-12T03:03:07.471Z,60.40
2019-05-12T03:05:37.163Z,60.39
2019-05-12T03:08:05.394Z,60.40
2019-05-12T03:10:35.542Z,60.41
2019-05-12T03:13:04.436Z,60.43
2019-05-12T03:15:36.183Z,60.44
2019-05-12T03:18:06.048Z,60.47
2019-05-12T03:20:35.096Z,60.50
2019-05-12T03:23:05.859Z,60.53
2019-05-12T03:25:35.643Z,60.55
2019-05-12T03:28:08.190Z,60.57
2019-05-12T03:30:38.340Z,60.61
2019-05-12T03:33:09.306Z,60.66
2019-05-12T03:35:42.594Z,60.69
2019-05-12T03:38:07.120Z,60.76
2019-05-12T03:40:38.471Z,60.78
2019-05-12T03:43:05.782Z,60.83
2019-05-12T03:45:35.811Z,60.85
2019-05-12T03:48:04.857Z,60.86
2019-05-12T03:50:35.289Z,60.87
2019-05-12T03:53:09.486Z,60.90
2019-05-12T03:55:39.445Z,60.91
2019-05-12T03:58:04.870Z,60.94
2019-05-12T04:00:35.862Z,60.94
2019-05-12T04:03:05.004Z,60.92
2019-05-12T04:05:34.997Z,60.97
2019-05-12T04:08:05.543Z,61.02
2019-05-12T04:10:35.307Z,61.08
2019-05-12T04:13:04.761Z,61.11
2019-05-12T04:15:34.779Z,61.15
2019-05-12T04:18:05.851Z,61.21
2019-05-12T04:20:35.621Z,61.28
2019-05-12T04:23:07.428Z,61.29
2019-05-12T04:28:17.560Z,61.33
2019-05-12T04:30:45.717Z,61.31
2019-05-12T04:33:15.506Z,61.29
2019-05-12T04:35:45.256Z,61.29
2019-05-12T04:38:14.821Z,61.28
2019-05-12T04:40:45.058Z,61.28
2019-05-12T04:43:14.605Z,61.23
2019-05-12T04:45:45.165Z,61.23
2019-05-12T04:48:15.616Z,61.23
2019-05-12T04:50:45.240Z,61.24
2019-05-12T04:53:14.350Z,61.27
2019-05-12T04:55:44.743Z,61.35
2019-05-12T04:58:15.581Z,61.39
2019-05-12T05:00:45.559Z,61.47
2019-05-12T05:03:14.355Z,61.52
2019-05-12T05:05:44.449Z,61.62
2019-05-12T05:08:14.519Z,61.69
2019-05-12T05:10:44.313Z,61.77
2019-05-12T05:13:15.001Z,61.82
2019-05-12T05:15:44.568Z,61.93
2019-05-12T05:18:13.407Z,62.01
2019-05-12T05:20:43.687Z,62.08
2019-05-12T05:23:13.908Z,62.12
2019-05-12T05:25:43.496Z,62.12
2019-05-12T05:28:11.673Z,62.09
2019-05-12T05:30:39.776Z,62.05
2019-05-12T05:33:07.914Z,62.03
2019-05-12T05:35:39.597Z,61.95
2019-05-12T05:38:10.770Z,61.89
2019-05-12T05:40:36.508Z,61.81
2019-05-12T05:43:12.632Z,61.76
2019-05-12T05:45:35.731Z,61.73
2019-05-12T05:48:05.572Z,61.73
2019-05-12T05:50:34.424Z,61.75
2019-05-12T05:53:04.269Z,61.80
2019-05-12T05:55:34.452Z,61.87
2019-05-12T05:58:05.827Z,61.90
2019-05-12T06:00:35.103Z,61.90
2019-05-12T06:03:05.264Z,61.92
2019-05-12T06:05:34.625Z,61.90
2019-05-12T06:08:04.202Z,61.88
2019-05-12T06:10:36.281Z,61.88
2019-05-12T06:15:40.963Z,61.98
2019-05-12T06:18:13.432Z,61.85
2019-05-12T06:20:41.003Z,61.71
2019-05-12T06:23:09.139Z,61.67
2019-05-12T06:25:54.722Z,61.58
2019-05-12T06:28:08.938Z,61.53
2019-05-12T06:30:44.507Z,61.52
2019-05-12T06:33:07.111Z,61.46
2019-05-12T06:35:42.121Z,61.37
2019-05-12T06:38:05.510Z,61.26
2019-05-12T06:40:40.222Z,61.25
2019-05-12T06:43:04.366Z,61.18
2019-05-12T06:45:42.095Z,61.08
2019-05-12T06:48:04.745Z,61.03
2019-05-12T06:50:38.680Z,60.92
2019-05-12T06:53:05.242Z,60.79
2019-05-12T06:55:38.809Z,60.69
2019-05-12T06:58:04.808Z,60.57
2019-05-12T07:00:35.129Z,60.43
2019-05-12T07:03:03.974Z,60.33
2019-05-12T07:05:38.013Z,60.19
2019-05-12T07:08:04.799Z,60.08
2019-05-12T07:10:41.687Z,59.99
2019-05-12T07:13:05.484Z,59.88
2019-05-12T07:15:38.142Z,59.84
2019-05-12T07:18:07.723Z,59.78
2019-05-12T07:20:38.985Z,59.70
2019-05-12T07:23:06.162Z,59.62
2019-05-12T07:25:36.657Z,59.58
2019-05-12T07:28:07.912Z,59.52
2019-05-12T07:30:35.314Z,59.38
2019-05-12T07:33:04.443Z,59.34
2019-05-12T07:35:33.988Z,59.20
2019-05-12T07:38:04.743Z,59.04
2019-05-12T07:40:34.720Z,58.79
2019-05-12T07:43:04.036Z,58.39
2019-05-12T07:45:34.078Z,58.08
2019-05-12T07:48:05.612Z,57.89
2019-05-12T07:50:34.508Z,57.70
2019-05-12T07:53:04.027Z,57.44
2019-05-12T07:55:34.172Z,57.22
2019-05-12T07:58:10.019Z,57.02
2019-05-12T08:00:33.914Z,56.81
2019-05-12T08:03:08.072Z,56.75
2019-05-12T08:05:33.743Z,56.65
2019-05-12T08:08:09.109Z,56.61
2019-05-12T08:10:34.208Z,56.66
2019-05-12T08:13:04.341Z,56.72
2019-05-12T08:15:33.948Z,56.74
2019-05-12T08:18:07.451Z,56.81
2019-05-12T08:20:34.375Z,56.81
2019-05-12T08:23:05.817Z,56.71
2019-05-12T08:25:34.270Z,56.44
2019-05-12T08:28:14.526Z,56.03
2019-05-12T08:30:40.502Z,55.59
2019-05-12T08:33:09.699Z,55.29
2019-05-12T08:35:38.498Z,55.05
2019-05-12T08:38:06.608Z,54.88
2019-05-12T08:40:39.851Z,54.85
2019-05-12T08:43:10.358Z,54.94
2019-05-12T08:45:37.593Z,55.20
2019-05-12T08:48:10.136Z,55.45
2019-05-12T08:50:36.123Z,55.54
2019-05-12T08:53:04.898Z,55.49
2019-05-12T08:55:35.900Z,55.42
2019-05-12T08:58:04.385Z,55.31
2019-05-12T09:00:46.517Z,55.07
2019-05-12T09:03:09.214Z,54.80
2019-05-12T09:05:38.735Z,54.60
2019-05-12T09:08:07.048Z,54.36
2019-05-12T09:10:35.168Z,54.10
2019-05-12T09:13:04.165Z,53.88
2019-05-12T09:15:34.624Z,53.52
2019-05-12T09:18:04.877Z,53.25
2019-05-12T09:20:33.386Z,53.03
2019-05-12T09:23:02.755Z,52.83
2019-05-12T09:25:33.836Z,52.60
2019-05-12T09:28:03.889Z,52.24
2019-05-12T09:30:33.617Z,51.94
2019-05-12T09:33:04.042Z,51.76
2019-05-12T09:35:34.781Z,51.53
2019-05-12T09:38:03.692Z,51.26
2019-05-12T09:40:35.665Z,51.02
2019-05-12T09:43:08.691Z,50.72
2019-05-12T09:45:34.091Z,50.48
2019-05-12T09:48:04.788Z,50.14
2019-05-12T09:50:34.104Z,49.97
2019-05-12T09:53:09.750Z,49.86
2019-05-12T09:55:34.247Z,49.66
2019-05-12T09:58:03.974Z,49.29
2019-05-12T10:00:35.957Z,48.92
2019-05-12T10:03:04.815Z,48.69
2019-05-12T10:05:39.308Z,48.41
2019-05-12T10:08:04.490Z,48.33
2019-05-12T10:10:38.182Z,48.25
2019-05-12T10:13:04.722Z,48.06
2019-05-12T10:15:33.354Z,47.98
2019-05-12T10:18:06.414Z,47.84
2019-05-12T10:20:39.547Z,47.71
2019-05-12T10:23:04.599Z,47.55
2019-05-12T10:25:33.897Z,47.33
2019-05-12T10:28:11.140Z,47.05
2019-05-12T10:30:34.248Z,46.81
2019-05-12T10:33:03.885Z,46.69
2019-05-12T10:35:34.693Z,46.56
2019-05-12T10:38:06.291Z,46.52
2019-05-12T10:40:33.894Z,46.39
2019-05-12T10:43:04.658Z,46.28
2019-05-12T10:45:33.219Z,46.22
2019-05-12T10:48:03.578Z,46.05
2019-05-12T10:50:33.818Z,45.91
2019-05-12T10:53:04.209Z,45.84
2019-05-12T10:55:33.539Z,45.81
2019-05-12T10:58:06.561Z,45.76
2019-05-12T11:00:33.863Z,45.74
2019-05-12T11:03:09.678Z,45.62
2019-05-12T11:05:33.988Z,45.49
2019-05-12T11:08:06.530Z,45.35
2019-05-12T11:10:32.841Z,45.10
2019-05-12T11:13:05.925Z,44.88
2019-05-12T11:15:34.209Z,44.83
2019-05-12T11:18:08.703Z,44.92
2019-05-12T11:20:36.844Z,44.92
2019-05-12T11:23:04.937Z,44.86
2019-05-12T11:25:33.972Z,44.74
2019-05-12T11:28:03.704Z,44.70
2019-05-12T11:30:34.289Z,44.57
2019-05-12T11:33:04.200Z,44.32
2019-05-12T11:35:32.567Z,44.10
2019-05-12T11:38:00.690Z,43.89
2019-05-12T11:40:28.710Z,43.80
2019-05-12T11:43:01.047Z,43.56
2019-05-12T11:45:26.906Z,43.39
2019-05-12T11:47:59.128Z,43.35
2019-05-12T11:50:25.920Z,43.18
2019-05-12T11:52:54.032Z,43.07
2019-05-12T11:55:29.855Z,43.06
2019-05-12T11:57:54.497Z,43.07
2019-05-12T12:00:25.582Z,43.03
2019-05-12T12:02:53.677Z,43.02
2019-05-12T12:05:23.577Z,42.85
2019-05-12T12:07:53.433Z,42.79
2019-05-12T12:10:23.403Z,42.77
2019-05-12T12:12:53.976Z,42.62
2019-05-12T12:15:26.416Z,42.53
2019-05-12T12:17:53.617Z,42.46
2019-05-12T12:20:22.975Z,42.36
2019-05-12T12:22:54.115Z,42.23
2019-05-12T12:25:27.793Z,42.13
2019-05-12T12:27:56.093Z,42.09
2019-05-12T12:30:24.358Z,42.00
2019-05-12T12:32:56.878Z,41.85
2019-05-12T12:35:23.386Z,41.74
2019-05-12T12:37:53.937Z,41.50
2019-05-12T12:40:21.663Z,41.46
2019-05-12T12:42:49.765Z,41.34
2019-05-12T12:45:23.963Z,41.29
2019-05-12T12:47:54.039Z,41.12
2019-05-12T12:50:26.325Z,41.02
2019-05-12T12:52:53.414Z,40.86
2019-05-12T12:55:23.416Z,40.85
2019-05-12T12:57:51.724Z,40.93
2019-05-12T13:00:29.749Z,40.83
2019-05-12T13:02:50.751Z,40.73
2019-05-12T13:05:19.116Z,40.69
2019-05-12T13:07:47.682Z,40.76
2019-05-12T13:10:16.748Z,40.76
2019-05-12T13:12:45.057Z,40.76
2019-05-12T13:15:14.602Z,40.72
2019-05-12T13:17:44.718Z,40.64
2019-05-12T13:20:13.544Z,40.67
2019-05-12T13:22:44.216Z,40.55
2019-05-12T13:25:14.210Z,40.42
2019-05-12T13:27:42.260Z,40.40
2019-05-12T13:30:16.271Z,40.29
2019-05-12T13:32:40.982Z,40.28
2019-05-12T13:35:09.775Z,40.27
2019-05-12T13:37:39.265Z,40.21
2019-05-12T13:40:07.768Z,40.25
2019-05-12T13:42:37.479Z,40.08
2019-05-12T13:45:06.683Z,40.08
2019-05-12T13:47:39.684Z,40.12
2019-05-12T13:50:06.359Z,40.15
2019-05-12T13:52:34.468Z,40.12
2019-05-12T13:55:05.521Z,40.04
2019-05-12T13:57:34.257Z,39.86
2019-05-12T14:00:09.197Z,39.69
2019-05-12T14:02:33.612Z,39.79
2019-05-12T14:05:07.110Z,39.81
2019-05-12T14:07:34.531Z,39.83
2019-05-12T14:10:03.708Z,39.91
2019-05-12T14:12:32.050Z,39.91
2019-05-12T14:15:00.195Z,39.93
2019-05-12T14:17:31.105Z,39.92
2019-05-12T14:19:59.723Z,39.97
2019-05-12T14:22:27.740Z,39.93
2019-05-12T14:24:55.819Z,39.94
2019-05-12T14:27:28.510Z,39.88
2019-05-12T14:29:54.190Z,39.83
2019-05-12T14:32:24.055Z,39.74
2019-05-12T14:34:59.351Z,39.67
2019-05-12T14:37:23.814Z,39.67
2019-05-12T14:39:53.670Z,39.68
2019-05-12T14:42:26.054Z,39.81
2019-05-12T14:44:54.064Z,39.82
2019-05-12T14:47:25.748Z,39.75
2019-05-12T14:49:54.274Z,39.65
2019-05-12T14:52:22.262Z,39.59
2019-05-12T14:54:50.465Z,39.57
2019-05-12T14:57:18.775Z,39.60
2019-05-12T14:59:46.853Z,39.59
2019-05-12T15:02:19.492Z,39.44
2019-05-12T15:04:45.516Z,39.37
2019-05-12T15:07:15.282Z,39.35
2019-05-12T15:09:43.403Z,39.43
2019-05-12T15:12:13.878Z,39.56
2019-05-12T15:14:43.814Z,39.58
2019-05-12T15:17:13.787Z,39.61
2019-05-12T15:19:43.862Z,39.71
2019-05-12T15:22:14.545Z,39.73
2019-05-12T15:24:44.015Z,39.83
2019-05-12T15:27:13.543Z,39.88
2019-05-12T15:29:41.709Z,39.89
2019-05-12T15:32:09.863Z,39.92
2019-05-12T15:34:38.116Z,39.99
2019-05-12T15:37:06.559Z,40.06
2019-05-12T15:39:35.288Z,40.10
2019-05-12T15:42:03.676Z,40.17
2019-05-12T15:44:34.571Z,40.25
2019-05-12T15:47:03.848Z,40.31
2019-05-12T15:49:33.777Z,40.35
2019-05-12T15:52:03.662Z,40.39
2019-05-12T15:54:35.737Z,40.45
2019-05-12T15:57:04.233Z,40.49
2019-05-12T15:59:34.619Z,40.48
2019-05-12T16:02:12.411Z,40.54
2019-05-12T16:04:42.268Z,40.55
2019-05-12T16:07:04.081Z,40.59
2019-05-12T16:09:34.408Z,40.63
2019-05-12T16:12:09.595Z,40.69
2019-05-12T16:14:36.846Z,40.70
2019-05-12T16:17:06.010Z,40.72
2019-05-12T16:19:34.565Z,40.72
2019-05-12T16:22:03.634Z,40.79
2019-05-12T16:24:33.935Z,40.81
2019-05-12T16:27:03.649Z,40.85
2019-05-12T16:29:34.075Z,40.86
2019-05-12T16:32:04.443Z,40.91
2019-05-12T16:34:38.539Z,40.96
2019-05-12T16:37:04.095Z,40.97
2019-05-12T16:39:37.010Z,41.02
2019-05-12T16:42:06.206Z,41.06
2019-05-12T16:44:34.942Z,41.04
2019-05-12T16:47:04.291Z,41.02
2019-05-12T16:49:35.220Z,41.06
2019-05-12T16:52:04.098Z,41.09
2019-05-12T16:54:33.582Z,41.10
2019-05-12T16:57:06.347Z,41.09
2019-05-12T16:59:32.090Z,41.12
2019-05-12T17:02:08.027Z,41.15
2019-05-12T17:04:33.364Z,41.18
2019-05-12T17:07:01.322Z,41.21
2019-05-12T17:09:29.324Z,41.21
2019-05-12T17:11:57.456Z,41.24
2019-05-12T17:14:28.520Z,41.21
2019-05-12T17:16:57.221Z,41.20
2019-05-12T17:19:25.433Z,41.23
2019-05-12T17:21:57.636Z,41.24
2019-05-12T17:24:24.031Z,41.25
2019-05-12T17:26:52.127Z,41.28
2019-05-12T17:29:20.473Z,41.29
2019-05-12T17:31:48.622Z,41.27
2019-05-12T17:34:16.766Z,41.27
2019-05-12T17:36:45.168Z,41.29
2019-05-12T17:39:14.817Z,41.29
2019-05-12T17:41:45.560Z,41.33
2019-05-12T17:44:13.564Z,41.37
2019-05-12T17:46:43.902Z,41.37
2019-05-12T17:49:15.992Z,41.39
2019-05-12T17:51:42.283Z,41.40
2019-05-12T17:54:13.390Z,41.41
2019-05-12T17:56:40.479Z,41.41
2019-05-12T17:59:08.498Z,41.43
2019-05-12T18:01:36.801Z,41.47
2019-05-12T18:04:04.806Z,41.47
2019-05-12T18:06:34.092Z,41.45
2019-05-12T18:09:09.196Z,41.45
2019-05-12T18:11:36.614Z,41.51
2019-05-12T18:14:07.225Z,41.54
2019-05-12T18:16:35.644Z,41.55
2019-05-12T18:19:08.982Z,41.57
2019-05-12T18:21:35.589Z,41.61
2019-05-12T18:24:08.743Z,41.63
2019-05-12T18:26:34.026Z,41.67
2019-05-12T18:29:04.131Z,41.68
2019-05-12T18:31:33.441Z,41.70
2019-05-12T18:34:04.805Z,41.70
2019-05-12T18:36:34.216Z,41.74
2019-05-12T18:39:11.342Z,41.78
2019-05-12T18:41:34.949Z,41.81
2019-05-12T18:44:04.429Z,41.86
2019-05-12T18:46:36.176Z,41.89
2019-05-12T18:49:11.602Z,41.90
2019-05-12T18:51:34.292Z,41.93
2019-05-12T18:54:03.876Z,41.95
2019-05-12T18:56:33.596Z,41.97
2019-05-12T18:59:11.181Z,42.01
2019-05-12T19:01:33.545Z,42.03
2019-05-12T19:04:05.576Z,42.07
2019-05-12T19:06:35.013Z,42.10
2019-05-12T19:09:05.750Z,42.12
2019-05-12T19:11:41.619Z,42.17
2019-05-12T19:14:05.642Z,42.19
2019-05-12T19:16:34.871Z,42.24
2019-05-12T19:19:04.519Z,42.29
2019-05-12T19:21:32.883Z,42.31
2019-05-12T19:24:03.413Z,42.36
2019-05-12T19:26:40.575Z,42.38
2019-05-12T19:29:14.165Z,42.45
2019-05-12T19:31:51.887Z,42.48
2019-05-12T19:34:22.001Z,42.54
2019-05-12T19:36:49.411Z,42.59
2019-05-12T19:39:15.976Z,42.63
2019-05-12T19:41:44.099Z,42.68
2019-05-12T19:44:13.421Z,42.72
2019-05-12T19:46:46.136Z,42.76
2019-05-12T19:49:12.218Z,42.81
2019-05-12T19:51:49.397Z,42.85
2019-05-12T19:54:19.425Z,42.93
2019-05-12T19:56:47.583Z,42.98
2019-05-12T19:59:15.981Z,43.03
2019-05-12T20:01:53.583Z,43.08
2019-05-12T20:04:33.002Z,43.15
2019-05-12T20:06:54.435Z,43.19
2019-05-12T20:09:24.435Z,43.26
2019-05-12T20:11:53.652Z,43.32
2019-05-12T20:14:34.237Z,43.37
2019-05-12T20:17:01.974Z,43.43
2019-05-12T20:19:31.178Z,43.50
2019-05-12T20:22:03.358Z,43.55
2019-05-12T20:24:31.214Z,43.63
2019-05-12T20:26:59.491Z,43.71
2019-05-12T20:29:37.425Z,43.74
2019-05-12T20:32:05.500Z,43.79
2019-05-12T20:34:48.517Z,43.84
2019-05-12T20:37:12.612Z,43.92
2019-05-12T20:39:51.133Z,43.96
2019-05-12T20:42:17.786Z,44.02
2019-05-12T20:44:45.935Z,44.05
2019-05-12T20:47:15.872Z,44.11
2019-05-12T20:49:50.949Z,44.15
2019-05-12T20:52:14.514Z,44.23
2019-05-12T20:54:44.135Z,44.28
2019-05-12T20:57:14.135Z,44.34
2019-05-12T20:59:44.609Z,44.40
2019-05-12T21:02:14.099Z,44.47
2019-05-12T21:04:44.338Z,44.54
2019-05-12T21:07:21.227Z,44.64
2019-05-12T21:09:44.205Z,44.67
2019-05-12T21:12:13.852Z,44.72
2019-05-12T21:14:51.150Z,44.78
2019-05-12T21:17:15.855Z,44.81
2019-05-12T21:19:55.736Z,44.89
2019-05-12T21:22:14.265Z,44.94
2019-05-12T21:24:43.901Z,44.99
2019-05-12T21:27:18.267Z,45.06
2019-05-12T21:29:43.727Z,45.12
2019-05-12T21:32:16.562Z,45.14
2019-05-12T21:34:43.755Z,45.20
2019-05-12T21:37:13.932Z,45.26
2019-05-12T21:39:49.146Z,45.31
2019-05-12T21:42:13.278Z,45.36
2019-05-12T21:44:46.985Z,45.42
2019-05-12T21:47:13.938Z,45.48
2019-05-12T21:49:42.744Z,45.53
2019-05-12T21:52:13.628Z,45.60
2019-05-12T21:54:43.976Z,45.66
2019-05-12T21:57:12.130Z,45.69
2019-05-12T21:59:40.344Z,45.77
2019-05-12T22:02:09.074Z,45.83
2019-05-12T22:04:41.333Z,45.88
2019-05-12T22:07:07.249Z,45.94
2019-05-12T22:09:41.413Z,45.98
2019-05-12T22:12:05.439Z,46.03
2019-05-12T22:14:38.693Z,46.08
2019-05-12T22:17:05.933Z,46.12
2019-05-12T22:19:37.637Z,46.18
2019-05-12T22:22:05.137Z,46.23
2019-05-12T22:24:38.535Z,46.30
2019-05-12T22:27:05.060Z,46.35
2019-05-12T22:29:34.353Z,46.40
2019-05-12T22:32:04.848Z,46.46
2019-05-12T22:34:37.245Z,46.50
2019-05-12T22:37:04.086Z,46.55
2019-05-12T22:39:33.821Z,46.62
2019-05-12T22:42:03.515Z,46.69
2019-05-12T22:44:31.812Z,46.76
2019-05-12T22:47:06.546Z,46.80
2019-05-12T22:49:30.911Z,46.86
2019-05-12T22:52:02.823Z,46.98
2019-05-12T22:54:29.131Z,47.11
2019-05-12T22:56:57.221Z,47.21
2019-05-12T22:59:25.358Z,47.30
2019-05-12T23:01:54.184Z,47.36
2019-05-12T23:04:26.021Z,47.44
2019-05-12T23:06:52.854Z,47.47
2019-05-12T23:09:27.942Z,47.53
2019-05-12T23:11:53.573Z,47.59
2019-05-12T23:14:24.571Z,47.63
2019-05-12T23:16:54.362Z,47.67
2019-05-12T23:19:23.532Z,47.73
2019-05-12T23:21:55.350Z,47.75
2019-05-12T23:24:23.613Z,47.74
2019-05-12T23:26:53.851Z,47.74
2019-05-12T23:29:29.465Z,47.75
2019-05-12T23:31:53.679Z,47.77
2019-05-12T23:34:23.232Z,47.81
2019-05-12T23:36:56.816Z,47.91
2019-05-12T23:39:23.454Z,47.92
2019-05-12T23:41:53.630Z,47.94
2019-05-12T23:44:23.916Z,47.96
2019-05-12T23:46:53.807Z,48.01
2019-05-12T23:49:24.260Z,48.02
2019-05-12T23:51:54.224Z,48.04
2019-05-12T23:54:23.770Z,48.11
2019-05-12T23:56:53.670Z,48.15
2019-05-12T23:59:24.011Z,48.19
